EKCHEGGW

Guest
Details From EKCH - Kastrup
To EGGW - London Luton
Flight Number -
Tags generated
Created
Modified
Stats Distance 529 nm / 981 km
Max Altitude 34,100 ft / 10,394 m
Waypoints 11
Social Downloads 5
Likes 0
Share VATSIM

Download

Looking for another format? Having issues loading an existing format? Contact us
Advertisement - Login to hide

Notes

Basic altitude profile: - Ascent Rate: 2500ft/min - Ascent Speed: 250kts - Cruise Altitude: 35000ft - Cruise Speed: 420kts - Descent Rate: 1500ft/min - Descent Speed: 250kts

Route

EKCH ALASA UT502 DEGUL UN872 EEL UZ701 SPY UR12 TULIP UL620 REDFA EGGW

ID Type Via Altitude Latitude Longitude Leg Dist Tot Dist Heading (true) Name
O EKCH APT - 0 ft / 0 m 55.61291˚ 12.64096˚ - 0 nm - Kastrup
ALASA FIX - 34,000 ft / 10,363 m 54.80861˚ 9.96167˚ 103 nm 103 nm 243° / 241° -
LISBU FIX UT502 (AWY-HI) 34,000 ft / 10,363 m 54.72083˚ 9.69389˚ 10 nm 114 nm 241° / 240° -
DEGUL FIX UT502 (AWY-HI) 34,000 ft / 10,363 m 54.64667˚ 9.46944˚ 8 nm 123 nm 240° / 240° -
GOLEN FIX UN872 (AWY-HI) 34,000 ft / 10,363 m 54.05972˚ 8.32083˚ 53 nm 176 nm 229° / 228° -
KUBAT FIX UN872 (AWY-HI) 34,000 ft / 10,363 m 53.33639˚ 6.99361˚ 64 nm 240 nm 228° / 227° -
EEL VOR UN872 (AWY-HI) 34,000 ft / 10,363 m 53.16391˚ 6.66667˚ 15 nm 256 nm 229° / 228° EELDE VOR-DME
SPY VOR UZ701 (AWY-HI) 34,000 ft / 10,363 m 52.54028˚ 4.85378˚ 75 nm 332 nm 241° / 240° SPIJKERBOOR VOR-DME
TULIP FIX UR12 (AWY-HI) 34,100 ft / 10,394 m 52.36775˚ 3.85731˚ 37 nm 370 nm 255° / 254° -
REDFA FIX UL620 (AWY-HI) 26,000 ft / 7,925 m 52.11459˚ 2.48795˚ 52 nm 422 nm 254° / 253° -
O EGGW APT - 0 ft / 0 m 51.87463˚ -0.36845˚ 106 nm 529 nm 263° / 261° London Luton

Altitude Profile

Advertisement - Login to hide

Weather


0- 5 10 15 20 25 30 35+ Temperature / ° C

Clouds and Precipitation
Forecast for 2018-05-22 18:00 UTC. Updated 5 hours ago

Ground ~20,000 ft ~40,000 ft Winds

EKCH

Details ICAO EKCH (CPH)
Name Kastrup
Region Denmark / Faroe Islands
Timezone Europe/Copenhagen (UTC+2.0)
Stats Elevation 17 ft / 5 m (AMSL)
Location 55.612915° 12.640961°
Runways 3
Magnetic Variation 3.788° E

METAR

EKCH 222120Z 22003KT CAVOK 12/10 Q1020 NOSIG

Decode

TAF

TAF EKCH 221101Z 2212/2312 07008KT CAVOK= TAF EKBI 221059Z 2212/2312 09008KT CAVOK

Decode

Departure Runways

ID Width Length Bearing (true) Bearing (mag) Surface Threshold Offset Overrun Length
04L 148 ft / 45 m 11,848 ft / 3,611 m 41.15° 37.36° Asphalt 0 ft / 0 m 0 ft / 0 m
04R 148 ft / 45 m 10,814 ft / 3,296 m 41.15° 37.36° Asphalt 0 ft / 0 m 0 ft / 0 m
12 148 ft / 45 m 10,047 ft / 3,063 m 123.21° 119.42° Asphalt 2,313 ft / 705 m 0 ft / 0 m
22L 148 ft / 45 m 10,814 ft / 3,296 m 221.17° 217.38° Asphalt 0 ft / 0 m 0 ft / 0 m
22R 148 ft / 45 m 11,848 ft / 3,611 m 221.18° 217.39° Asphalt 2,018 ft / 615 m 0 ft / 0 m
30 148 ft / 45 m 10,047 ft / 3,063 m 303.25° 299.46° Asphalt 886 ft / 270 m 0 ft / 0 m

EGGW

Details ICAO EGGW (LTN)
Name London Luton
Region United Kingdom
Timezone Europe/London (UTC+1.0)
Stats Elevation 526 ft / 160 m (AMSL)
Location 51.874629° -0.368450°
Runways 1
Magnetic Variation 0.508° W

METAR

EGGW 222120Z AUTO 01013KT 9999 NCD 10/08 Q1021

Decode

TAF

TAF AMD EGGW 222026Z 2220/2318 36008KT 9999 FEW040 PROB30 2220/2221 BKN010 BECMG 2221/2224 8000 BKN008 PROB30 TEMPO 2300/2306 2000 BR BKN002 BECMG 2306/2309 9999 FEW045 PROB30 TEMPO 2316/2318 6000 SHRA

Decode

Destination Runways

ID Width Length Bearing (true) Bearing (mag) Surface Threshold Offset Overrun Length
08 151 ft / 46 m 7,066 ft / 2,154 m 74.35° 74.86° Asphalt 0 ft / 0 m 200 ft / 61 m
26 151 ft / 46 m 7,066 ft / 2,154 m 254.38° 254.89° Asphalt 272 ft / 83 m 0 ft / 0 m

Approach Navaids

Runway Type Ident Frequency Range Bearing (true) Bearing (mag) Slope Elevation
08 Localiser ILTN 109.15 MHz 18 nm / 33 km 74.37° 74.88° - 526 ft / 160 m (AMSL)
08 Glidescope ILTN 109.15 MHz 10 nm / 19 km 74.36° 74.87° 3.00° 526 ft / 160 m (AMSL)
08 DME ILTN 109.15 MHz 18 nm / 33 km - - - 549 ft / 167 m (AMSL)
26 Localiser ILJ 109.15 MHz 18 nm / 33 km 254.35° 254.86° - 526 ft / 160 m (AMSL)
26 Glidescope ILJ 109.15 MHz 10 nm / 19 km 254.36° 254.87° 3.00° 526 ft / 160 m (AMSL)
26 DME ILJ 109.15 MHz 18 nm / 33 km - - - 549 ft / 167 m (AMSL)

Popular Alternatives